sensor_id;sensor_type;location;lat;lon;timestamp;pressure;altitude;pressure_sealevel;temperature;humidity
8318;BME280;4196;48.926;8.964;2023-05-18T00:00:48;99742.03;;;3.34;100.00
8318;BME280;4196;48.926;8.964;2023-05-18T00:03:39;99744.69;;;3.35;100.00
8318;BME280;4196;48.926;8.964;2023-05-18T00:06:26;99716.56;;;3.37;100.00
8318;BME280;4196;48.926;8.964;2023-05-18T00:09:13;99723.38;;;3.36;100.00
8318;BME280;4196;48.926;8.964;2023-05-18T00:12:00;99742.53;;;3.46;100.00
8318;BME280;4196;48.926;8.964;2023-05-18T00:14:47;99731.75;;;3.32;100.00
8318;BME280;4196;48.926;8.964;2023-05-18T00:17:33;99699.56;;;3.15;100.00
8318;BME280;4196;48.926;8.964;2023-05-18T00:20:19;99693.28;;;3.31;100.00
8318;BME280;4196;48.926;8.964;2023-05-18T00:23:07;99698.81;;;3.18;100.00
8318;BME280;4196;48.926;8.964;2023-05-18T00:25:56;99724.09;;;3.32;100.00
8318;BME280;4196;48.926;8.964;2023-05-18T00:28:43;99706.81;;;3.27;100.00
8318;BME280;4196;48.926;8.964;2023-05-18T00:31:29;99716.84;;;3.21;100.00
8318;BME280;4196;48.926;8.964;2023-05-18T00:34:16;99700.88;;;3.05;100.00
8318;BME280;4196;48.926;8.964;2023-05-18T00:37:02;99712.31;;;3.37;100.00
8318;BME280;4196;48.926;8.964;2023-05-18T00:39:49;99727.63;;;3.36;100.00
8318;BME280;4196;48.926;8.964;2023-05-18T00:42:35;99666.31;;;3.17;100.00
8318;BME280;4196;48.926;8.964;2023-05-18T00:45:21;99722.50;;;3.36;100.00
8318;BME280;4196;48.926;8.964;2023-05-18T00:48:08;99700.94;;;3.29;100.00
8318;BME280;4196;48.926;8.964;2023-05-18T00:50:54;99713.88;;;3.34;100.00
8318;BME280;4196;48.926;8.964;2023-05-18T00:53:41;99725.69;;;3.30;100.00
8318;BME280;4196;48.926;8.964;2023-05-18T00:56:29;99680.09;;;2.96;100.00
8318;BME280;4196;48.926;8.964;2023-05-18T00:59:18;99660.84;;;2.83;100.00
8318;BME280;4196;48.926;8.964;2023-05-18T01:02:05;99655.91;;;3.10;100.00
8318;BME280;4196;48.926;8.964;2023-05-18T01:04:55;99712.19;;;3.34;100.00
8318;BME280;4196;48.926;8.964;2023-05-18T01:07:41;99668.41;;;3.27;100.00
8318;BME280;4196;48.926;8.964;2023-05-18T01:10:32;99673.16;;;3.40;100.00
8318;BME280;4196;48.926;8.964;2023-05-18T01:13:34;99681.28;;;3.28;100.00
8318;BME280;4196;48.926;8.964;2023-05-18T01:16:30;99713.06;;;3.57;100.00
8318;BME280;4196;48.926;8.964;2023-05-18T01:25:46;99730.03;;;3.55;100.00
8318;BME280;4196;48.926;8.964;2023-05-18T01:28:35;99716.09;;;3.47;100.00
8318;BME280;4196;48.926;8.964;2023-05-18T01:31:22;99723.03;;;3.75;100.00
8318;BME280;4196;48.926;8.964;2023-05-18T01:34:08;99692.38;;;3.53;100.00
8318;BME280;4196;48.926;8.964;2023-05-18T01:36:55;99702.69;;;3.54;100.00
8318;BME280;4196;48.926;8.964;2023-05-18T01:39:42;99718.66;;;3.47;100.00
8318;BME280;4196;48.926;8.964;2023-05-18T01:42:29;99647.75;;;2.98;100.00
8318;BME280;4196;48.926;8.964;2023-05-18T01:45:21;99719.88;;;3.34;100.00
8318;BME280;4196;48.926;8.964;2023-05-18T01:48:19;99692.00;;;2.96;100.00
8318;BME280;4196;48.926;8.964;2023-05-18T01:51:08;99643.34;;;2.72;100.00
8318;BME280;4196;48.926;8.964;2023-05-18T01:54:01;99683.22;;;2.89;100.00
8318;BME280;4196;48.926;8.964;2023-05-18T01:56:49;99674.28;;;2.78;100.00
8318;BME280;4196;48.926;8.964;2023-05-18T01:59:38;99703.44;;;3.05;100.00
8318;BME280;4196;48.926;8.964;2023-05-18T02:02:25;99624.75;;;2.53;100.00
8318;BME280;4196;48.926;8.964;2023-05-18T02:05:12;99665.84;;;2.80;100.00
8318;BME280;4196;48.926;8.964;2023-05-18T02:07:58;99728.63;;;3.17;100.00
8318;BME280;4196;48.926;8.964;2023-05-18T02:10:45;99663.72;;;2.91;100.00
8318;BME280;4196;48.926;8.964;2023-05-18T02:13:31;99682.06;;;3.03;100.00
8318;BME280;4196;48.926;8.964;2023-05-18T02:16:18;99703.84;;;3.16;100.00
8318;BME280;4196;48.926;8.964;2023-05-18T02:19:05;99721.69;;;3.37;100.00
8318;BME280;4196;48.926;8.964;2023-05-18T02:21:51;99678.09;;;3.11;100.00
8318;BME280;4196;48.926;8.964;2023-05-18T02:24:38;99705.81;;;3.23;100.00
8318;BME280;4196;48.926;8.964;2023-05-18T02:27:24;99722.44;;;3.34;100.00
8318;BME280;4196;48.926;8.964;2023-05-18T02:30:11;99708.28;;;3.44;100.00
8318;BME280;4196;48.926;8.964;2023-05-18T02:33:01;99710.97;;;3.47;100.00
8318;BME280;4196;48.926;8.964;2023-05-18T02:35:50;99697.72;;;3.35;100.00
8318;BME280;4196;48.926;8.964;2023-05-18T02:38:42;99719.72;;;3.30;100.00
8318;BME280;4196;48.926;8.964;2023-05-18T02:41:29;99704.25;;;3.04;100.00
8318;BME280;4196;48.926;8.964;2023-05-18T02:44:16;99676.84;;;2.78;100.00
8318;BME280;4196;48.926;8.964;2023-05-18T02:47:02;99671.34;;;2.69;100.00
8318;BME280;4196;48.926;8.964;2023-05-18T02:49:49;99665.91;;;2.59;100.00
8318;BME280;4196;48.926;8.964;2023-05-18T02:52:36;99680.53;;;2.63;100.00
8318;BME280;4196;48.926;8.964;2023-05-18T02:55:24;99676.38;;;2.65;100.00
8318;BME280;4196;48.926;8.964;2023-05-18T02:58:32;99682.66;;;2.74;100.00
8318;BME280;4196;48.926;8.964;2023-05-18T03:01:28;99671.59;;;2.75;100.00
8318;BME280;4196;48.926;8.964;2023-05-18T03:04:15;99683.81;;;2.82;100.00
8318;BME280;4196;48.926;8.964;2023-05-18T03:07:06;99711.69;;;2.98;100.00
8318;BME280;4196;48.926;8.964;2023-05-18T03:09:53;99670.19;;;2.83;100.00
8318;BME280;4196;48.926;8.964;2023-05-18T03:12:39;99674.09;;;2.73;100.00
8318;BME280;4196;48.926;8.964;2023-05-18T03:15:26;99675.56;;;2.66;100.00
8318;BME280;4196;48.926;8.964;2023-05-18T03:18:12;99676.09;;;2.80;100.00
8318;BME280;4196;48.926;8.964;2023-05-18T03:20:59;99678.53;;;2.77;100.00
8318;BME280;4196;48.926;8.964;2023-05-18T03:23:48;99697.56;;;2.63;100.00
8318;BME280;4196;48.926;8.964;2023-05-18T03:26:35;99705.19;;;2.61;100.00
8318;BME280;4196;48.926;8.964;2023-05-18T03:29:24;99637.16;;;2.22;100.00
8318;BME280;4196;48.926;8.964;2023-05-18T03:32:10;99671.88;;;2.60;100.00
8318;BME280;4196;48.926;8.964;2023-05-18T03:34:57;99683.84;;;2.61;100.00
8318;BME280;4196;48.926;8.964;2023-05-18T03:37:46;99687.88;;;2.54;100.00
8318;BME280;4196;48.926;8.964;2023-05-18T03:40:33;99697.59;;;2.42;100.00
8318;BME280;4196;48.926;8.964;2023-05-18T03:43:20;99683.50;;;2.31;100.00
8318;BME280;4196;48.926;8.964;2023-05-18T03:46:07;99648.38;;;2.04;100.00
8318;BME280;4196;48.926;8.964;2023-05-18T03:48:53;99649.63;;;1.93;100.00
8318;BME280;4196;48.926;8.964;2023-05-18T03:51:47;99701.94;;;2.24;100.00
8318;BME280;4196;48.926;8.964;2023-05-18T03:54:34;99689.50;;;2.10;100.00
8318;BME280;4196;48.926;8.964;2023-05-18T03:57:21;99708.00;;;2.26;100.00
8318;BME280;4196;48.926;8.964;2023-05-18T04:00:07;99688.00;;;2.15;100.00
8318;BME280;4196;48.926;8.964;2023-05-18T04:03:02;99705.59;;;2.29;100.00
8318;BME280;4196;48.926;8.964;2023-05-18T04:05:50;99693.72;;;2.31;100.00
8318;BME280;4196;48.926;8.964;2023-05-18T04:08:36;99673.41;;;2.34;100.00
8318;BME280;4196;48.926;8.964;2023-05-18T04:11:23;99711.31;;;2.44;100.00
8318;BME280;4196;48.926;8.964;2023-05-18T04:14:12;99693.84;;;2.34;100.00
8318;BME280;4196;48.926;8.964;2023-05-18T04:16:59;99655.03;;;2.22;100.00
8318;BME280;4196;48.926;8.964;2023-05-18T04:19:50;99663.88;;;2.30;100.00
8318;BME280;4196;48.926;8.964;2023-05-18T04:22:45;99732.41;;;2.82;100.00
8318;BME280;4196;48.926;8.964;2023-05-18T04:25:33;99692.19;;;2.78;100.00
8318;BME280;4196;48.926;8.964;2023-05-18T04:28:20;99741.59;;;3.22;100.00
8318;BME280;4196;48.926;8.964;2023-05-18T04:31:06;99699.84;;;3.00;100.00
8318;BME280;4196;48.926;8.964;2023-05-18T04:33:53;99715.66;;;3.12;100.00
8318;BME280;4196;48.926;8.964;2023-05-18T04:36:40;99738.66;;;3.35;100.00
8318;BME280;4196;48.926;8.964;2023-05-18T04:39:28;99711.88;;;3.25;100.00
8318;BME280;4196;48.926;8.964;2023-05-18T04:42:14;99721.09;;;3.44;100.00
8318;BME280;4196;48.926;8.964;2023-05-18T04:45:04;99745.63;;;3.61;100.00
8318;BME280;4196;48.926;8.964;2023-05-18T04:47:51;99731.53;;;3.73;100.00
8318;BME280;4196;48.926;8.964;2023-05-18T04:50:40;99719.72;;;3.78;100.00
8318;BME280;4196;48.926;8.964;2023-05-18T04:53:27;99733.28;;;3.99;100.00
8318;BME280;4196;48.926;8.964;2023-05-18T04:56:13;99735.53;;;4.41;100.00
8318;BME280;4196;48.926;8.964;2023-05-18T04:59:00;99705.84;;;4.75;100.00
8318;BME280;4196;48.926;8.964;2023-05-18T05:01:47;99738.75;;;5.45;100.00
8318;BME280;4196;48.926;8.964;2023-05-18T05:04:34;99753.00;;;6.26;100.00
8318;BME280;4196;48.926;8.964;2023-05-18T05:07:21;99736.19;;;7.54;100.00
8318;BME280;4196;48.926;8.964;2023-05-18T05:10:08;99717.50;;;8.59;100.00
8318;BME280;4196;48.926;8.964;2023-05-18T05:12:54;99741.91;;;9.42;94.31
8318;BME280;4196;48.926;8.964;2023-05-18T05:15:42;99733.78;;;9.81;88.90
8318;BME280;4196;48.926;8.964;2023-05-18T05:18:29;99750.88;;;10.46;84.45
8318;BME280;4196;48.926;8.964;2023-05-18T05:21:15;99748.78;;;11.12;83.27
8318;BME280;4196;48.926;8.964;2023-05-18T05:24:02;99732.53;;;11.48;74.20
8318;BME280;4196;48.926;8.964;2023-05-18T05:26:50;99717.88;;;11.59;68.93
8318;BME280;4196;48.926;8.964;2023-05-18T05:29:38;99732.63;;;11.74;73.87
8318;BME280;4196;48.926;8.964;2023-05-18T05:32:24;99722.44;;;12.23;70.68
8318;BME280;4196;48.926;8.964;2023-05-18T05:35:11;99724.09;;;11.98;67.57
8318;BME280;4196;48.926;8.964;2023-05-18T05:37:59;99752.75;;;12.46;69.33
8318;BME280;4196;48.926;8.964;2023-05-18T05:40:46;99726.75;;;12.30;68.86
8318;BME280;4196;48.926;8.964;2023-05-18T05:43:32;99731.06;;;12.22;68.95
8318;BME280;4196;48.926;8.964;2023-05-18T05:46:19;99688.63;;;11.96;67.90
8318;BME280;4196;48.926;8.964;2023-05-18T05:49:06;99733.59;;;11.92;68.79
8318;BME280;4196;48.926;8.964;2023-05-18T05:51:52;99711.41;;;10.78;75.76
8318;BME280;4196;48.926;8.964;2023-05-18T05:54:40;99701.66;;;10.45;78.41
8318;BME280;4196;48.926;8.964;2023-05-18T05:57:27;99742.25;;;10.47;76.78
8318;BME280;4196;48.926;8.964;2023-05-18T06:00:14;99745.25;;;10.03;83.59
8318;BME280;4196;48.926;8.964;2023-05-18T06:03:06;99740.84;;;9.96;83.71
8318;BME280;4196;48.926;8.964;2023-05-18T06:06:01;99726.63;;;9.59;88.41
8318;BME280;4196;48.926;8.964;2023-05-18T06:08:47;99739.66;;;9.68;86.90
8318;BME280;4196;48.926;8.964;2023-05-18T06:11:36;99722.28;;;9.56;86.36
8318;BME280;4196;48.926;8.964;2023-05-18T06:14:22;99745.69;;;9.67;89.29
8318;BME280;4196;48.926;8.964;2023-05-18T06:17:10;99756.38;;;9.98;81.27
8318;BME280;4196;48.926;8.964;2023-05-18T06:19:57;99746.69;;;9.77;83.46
8318;BME280;4196;48.926;8.964;2023-05-18T06:22:44;99704.22;;;9.61;88.62
8318;BME280;4196;48.926;8.964;2023-05-18T06:25:55;99720.66;;;9.64;79.42
8318;BME280;4196;48.926;8.964;2023-05-18T06:28:59;99754.81;;;10.09;76.10
8318;BME280;4196;48.926;8.964;2023-05-18T06:32:07;99715.34;;;9.51;75.19
8318;BME280;4196;48.926;8.964;2023-05-18T06:35:00;99725.13;;;9.76;77.41
8318;BME280;4196;48.926;8.964;2023-05-18T06:37:48;99747.91;;;10.11;75.62
8318;BME280;4196;48.926;8.964;2023-05-18T06:40:35;99754.16;;;10.28;73.60
8318;BME280;4196;48.926;8.964;2023-05-18T06:43:21;99733.34;;;10.22;72.59
8318;BME280;4196;48.926;8.964;2023-05-18T06:46:20;99708.47;;;10.33;73.20
8318;BME280;4196;48.926;8.964;2023-05-18T06:49:10;99695.47;;;10.26;72.71
8318;BME280;4196;48.926;8.964;2023-05-18T06:51:58;99721.53;;;10.46;71.07
8318;BME280;4196;48.926;8.964;2023-05-18T06:54:44;99685.88;;;10.17;72.11
8318;BME280;4196;48.926;8.964;2023-05-18T06:57:31;99675.53;;;10.20;72.06
8318;BME280;4196;48.926;8.964;2023-05-18T07:00:19;99691.28;;;10.38;70.15
8318;BME280;4196;48.926;8.964;2023-05-18T07:03:06;99677.34;;;10.26;70.31
8318;BME280;4196;48.926;8.964;2023-05-18T07:05:53;99701.69;;;10.48;68.78
8318;BME280;4196;48.926;8.964;2023-05-18T07:08:39;99718.19;;;10.60;68.12
8318;BME280;4196;48.926;8.964;2023-05-18T07:11:26;99696.59;;;10.57;70.27
8318;BME280;4196;48.926;8.964;2023-05-18T07:14:15;99714.09;;;10.92;68.09
8318;BME280;4196;48.926;8.964;2023-05-18T07:17:01;99761.03;;;11.44;67.44
8318;BME280;4196;48.926;8.964;2023-05-18T07:19:48;99720.38;;;11.35;65.50
8318;BME280;4196;48.926;8.964;2023-05-18T07:22:34;99735.94;;;11.36;66.67
8318;BME280;4196;48.926;8.964;2023-05-18T07:25:21;99759.38;;;11.49;65.28
8318;BME280;4196;48.926;8.964;2023-05-18T07:28:08;99739.47;;;11.55;65.07
8318;BME280;4196;48.926;8.964;2023-05-18T07:30:54;99705.66;;;11.28;66.04
8318;BME280;4196;48.926;8.964;2023-05-18T07:33:42;99730.00;;;11.62;65.29
8318;BME280;4196;48.926;8.964;2023-05-18T07:36:29;99737.88;;;11.79;64.11
8318;BME280;4196;48.926;8.964;2023-05-18T07:39:16;99720.53;;;11.78;66.06
8318;BME280;4196;48.926;8.964;2023-05-18T07:42:05;99725.84;;;11.98;64.54
8318;BME280;4196;48.926;8.964;2023-05-18T07:44:51;99743.09;;;11.93;63.96
8318;BME280;4196;48.926;8.964;2023-05-18T07:47:38;99742.22;;;11.84;64.12
8318;BME280;4196;48.926;8.964;2023-05-18T07:50:26;99724.88;;;11.71;64.34
8318;BME280;4196;48.926;8.964;2023-05-18T07:53:15;99746.38;;;11.50;65.34
8318;BME280;4196;48.926;8.964;2023-05-18T07:56:01;99743.94;;;11.82;66.11
8318;BME280;4196;48.926;8.964;2023-05-18T07:58:49;99713.72;;;11.97;65.79
8318;BME280;4196;48.926;8.964;2023-05-18T08:01:36;99730.19;;;12.14;65.31
8318;BME280;4196;48.926;8.964;2023-05-18T08:04:23;99709.41;;;12.05;65.06
8318;BME280;4196;48.926;8.964;2023-05-18T08:07:10;99714.63;;;12.23;65.30
8318;BME280;4196;48.926;8.964;2023-05-18T08:09:57;99707.72;;;12.35;64.10
8318;BME280;4196;48.926;8.964;2023-05-18T08:12:44;99724.16;;;12.47;64.23
8318;BME280;4196;48.926;8.964;2023-05-18T08:15:30;99709.44;;;12.40;64.77
8318;BME280;4196;48.926;8.964;2023-05-18T08:18:17;99706.84;;;12.58;63.85
8318;BME280;4196;48.926;8.964;2023-05-18T08:21:04;99693.00;;;12.50;64.17
8318;BME280;4196;48.926;8.964;2023-05-18T08:23:53;99729.34;;;12.81;63.06
8318;BME280;4196;48.926;8.964;2023-05-18T08:26:40;99712.88;;;12.80;61.62
8318;BME280;4196;48.926;8.964;2023-05-18T08:29:26;99684.31;;;12.73;61.01
8318;BME280;4196;48.926;8.964;2023-05-18T08:32:12;99728.47;;;12.80;61.45
8318;BME280;4196;48.926;8.964;2023-05-18T08:34:59;99708.56;;;12.50;60.67
8318;BME280;4196;48.926;8.964;2023-05-18T08:37:46;99679.13;;;12.54;61.43
8318;BME280;4196;48.926;8.964;2023-05-18T08:40:37;99705.94;;;12.92;60.56
8318;BME280;4196;48.926;8.964;2023-05-18T08:43:26;99691.22;;;12.97;60.37
8318;BME280;4196;48.926;8.964;2023-05-18T08:46:28;99704.16;;;13.18;60.80
8318;BME280;4196;48.926;8.964;2023-05-18T08:49:19;99699.88;;;13.03;60.64
8318;BME280;4196;48.926;8.964;2023-05-18T08:52:07;99696.34;;;13.21;61.66
8318;BME280;4196;48.926;8.964;2023-05-18T08:54:56;99678.13;;;13.21;60.07
8318;BME280;4196;48.926;8.964;2023-05-18T08:57:51;99674.66;;;13.41;59.81
8318;BME280;4196;48.926;8.964;2023-05-18T09:00:41;99680.63;;;13.60;60.14
8318;BME280;4196;48.926;8.964;2023-05-18T09:03:29;99676.09;;;13.91;55.31
8318;BME280;4196;48.926;8.964;2023-05-18T09:06:16;99627.19;;;14.33;56.12
8318;BME280;4196;48.926;8.964;2023-05-18T09:09:04;99659.19;;;14.50;53.07
8318;BME280;4196;48.926;8.964;2023-05-18T09:11:54;99679.06;;;14.63;55.43
8318;BME280;4196;48.926;8.964;2023-05-18T09:14:42;99678.94;;;14.76;54.68
8318;BME280;4196;48.926;8.964;2023-05-18T09:17:28;99670.78;;;15.08;50.61
8318;BME280;4196;48.926;8.964;2023-05-18T09:20:15;99668.13;;;15.12;49.61
8318;BME280;4196;48.926;8.964;2023-05-18T09:23:02;99660.25;;;15.15;48.78
8318;BME280;4196;48.926;8.964;2023-05-18T09:25:48;99685.59;;;15.04;47.86
8318;BME280;4196;48.926;8.964;2023-05-18T09:31:23;99660.56;;;14.86;47.76
8318;BME280;4196;48.926;8.964;2023-05-18T09:34:12;99687.41;;;14.99;48.78
8318;BME280;4196;48.926;8.964;2023-05-18T09:36:59;99664.38;;;14.53;48.33
8318;BME280;4196;48.926;8.964;2023-05-18T09:39:58;99683.28;;;14.77;48.77
8318;BME280;4196;48.926;8.964;2023-05-18T09:42:45;99648.75;;;14.48;47.44
8318;BME280;4196;48.926;8.964;2023-05-18T09:45:32;99662.16;;;15.01;48.27
8318;BME280;4196;48.926;8.964;2023-05-18T09:48:19;99648.53;;;15.50;48.78
8318;BME280;4196;48.926;8.964;2023-05-18T09:51:10;99670.28;;;16.12;47.46
8318;BME280;4196;48.926;8.964;2023-05-18T09:54:01;99671.63;;;16.38;47.08
8318;BME280;4196;48.926;8.964;2023-05-18T09:56:50;99647.09;;;16.45;46.07
8318;BME280;4196;48.926;8.964;2023-05-18T10:00:04;99648.41;;;16.72;47.21
8318;BME280;4196;48.926;8.964;2023-05-18T10:02:56;99659.41;;;16.40;46.62
8318;BME280;4196;48.926;8.964;2023-05-18T10:05:42;99629.00;;;15.79;47.03
8318;BME280;4196;48.926;8.964;2023-05-18T10:08:29;99659.22;;;15.98;47.12
8318;BME280;4196;48.926;8.964;2023-05-18T10:11:18;99647.38;;;16.30;48.16
8318;BME280;4196;48.926;8.964;2023-05-18T10:14:05;99651.38;;;16.51;47.41
8318;BME280;4196;48.926;8.964;2023-05-18T10:16:51;99625.38;;;15.89;47.94
8318;BME280;4196;48.926;8.964;2023-05-18T10:19:54;99655.41;;;16.17;48.02
8318;BME280;4196;48.926;8.964;2023-05-18T10:22:41;99629.41;;;16.08;47.52
8318;BME280;4196;48.926;8.964;2023-05-18T10:25:31;99619.56;;;16.26;47.10
8318;BME280;4196;48.926;8.964;2023-05-18T10:28:25;99624.97;;;16.16;46.97
8318;BME280;4196;48.926;8.964;2023-05-18T10:31:15;99644.84;;;16.24;46.05
8318;BME280;4196;48.926;8.964;2023-05-18T10:34:02;99625.47;;;16.37;46.51
8318;BME280;4196;48.926;8.964;2023-05-18T10:36:49;99631.03;;;16.17;44.22
8318;BME280;4196;48.926;8.964;2023-05-18T10:39:35;99633.94;;;15.97;44.76
8318;BME280;4196;48.926;8.964;2023-05-18T10:42:24;99637.78;;;15.76;45.65
8318;BME280;4196;48.926;8.964;2023-05-18T10:45:11;99623.81;;;15.76;45.19
8318;BME280;4196;48.926;8.964;2023-05-18T10:47:59;99648.19;;;15.78;43.58
8318;BME280;4196;48.926;8.964;2023-05-18T10:50:51;99639.44;;;15.79;44.38
8318;BME280;4196;48.926;8.964;2023-05-18T10:53:39;99627.47;;;15.62;44.37
8318;BME280;4196;48.926;8.964;2023-05-18T10:56:28;99644.91;;;15.60;43.91
8318;BME280;4196;48.926;8.964;2023-05-18T10:59:15;99634.06;;;15.91;43.79
8318;BME280;4196;48.926;8.964;2023-05-18T11:02:03;99609.47;;;16.04;44.63
8318;BME280;4196;48.926;8.964;2023-05-18T11:04:52;99608.22;;;16.27;43.11
8318;BME280;4196;48.926;8.964;2023-05-18T11:07:39;99626.06;;;16.54;43.88
8318;BME280;4196;48.926;8.964;2023-05-18T11:10:34;99606.94;;;16.49;43.18
8318;BME280;4196;48.926;8.964;2023-05-18T11:13:27;99619.06;;;17.03;43.08
8318;BME280;4196;48.926;8.964;2023-05-18T11:16:15;99610.22;;;17.08;41.69
8318;BME280;4196;48.926;8.964;2023-05-18T11:19:06;99620.59;;;16.68;42.29
8318;BME280;4196;48.926;8.964;2023-05-18T11:21:53;99590.84;;;16.74;42.93
8318;BME280;4196;48.926;8.964;2023-05-18T11:24:39;99604.53;;;16.88;42.73
8318;BME280;4196;48.926;8.964;2023-05-18T11:27:27;99600.47;;;17.15;42.53
8318;BME280;4196;48.926;8.964;2023-05-18T11:33:27;99584.50;;;16.85;41.49
8318;BME280;4196;48.926;8.964;2023-05-18T11:36:21;99608.00;;;16.88;41.67
8318;BME280;4196;48.926;8.964;2023-05-18T11:39:09;99582.75;;;16.86;41.29
8318;BME280;4196;48.926;8.964;2023-05-18T11:42:08;99580.72;;;16.55;41.34
8318;BME280;4196;48.926;8.964;2023-05-18T11:44:54;99582.94;;;16.77;42.26
8318;BME280;4196;48.926;8.964;2023-05-18T11:47:41;99579.66;;;16.65;42.65
8318;BME280;4196;48.926;8.964;2023-05-18T11:50:30;99590.81;;;16.77;41.60
8318;BME280;4196;48.926;8.964;2023-05-18T11:53:17;99591.34;;;16.93;41.64
8318;BME280;4196;48.926;8.964;2023-05-18T11:56:04;99588.13;;;17.23;41.71
8318;BME280;4196;48.926;8.964;2023-05-18T11:59:10;99602.75;;;16.90;40.94
8318;BME280;4196;48.926;8.964;2023-05-18T12:01:59;99585.91;;;17.03;41.53
8318;BME280;4196;48.926;8.964;2023-05-18T12:04:51;99595.28;;;17.13;41.57
8318;BME280;4196;48.926;8.964;2023-05-18T12:07:39;99570.16;;;17.06;41.48
8318;BME280;4196;48.926;8.964;2023-05-18T12:10:27;99579.47;;;17.20;41.19
8318;BME280;4196;48.926;8.964;2023-05-18T12:13:15;99585.19;;;17.37;41.74
8318;BME280;4196;48.926;8.964;2023-05-18T12:16:02;99573.84;;;17.38;41.15
8318;BME280;4196;48.926;8.964;2023-05-18T12:18:50;99580.00;;;17.34;41.26
8318;BME280;4196;48.926;8.964;2023-05-18T12:21:37;99574.88;;;17.29;40.10
8318;BME280;4196;48.926;8.964;2023-05-18T12:24:23;99557.22;;;17.39;41.41
8318;BME280;4196;48.926;8.964;2023-05-18T12:27:10;99556.63;;;17.28;40.56
8318;BME280;4196;48.926;8.964;2023-05-18T12:29:57;99584.47;;;16.88;40.06
8318;BME280;4196;48.926;8.964;2023-05-18T12:32:51;99556.00;;;16.72;40.74
8318;BME280;4196;48.926;8.964;2023-05-18T12:35:39;99575.28;;;17.11;40.27
8318;BME280;4196;48.926;8.964;2023-05-18T12:38:25;99559.84;;;16.97;39.62
8318;BME280;4196;48.926;8.964;2023-05-18T12:41:20;99521.56;;;17.35;40.92
8318;BME280;4196;48.926;8.964;2023-05-18T12:44:07;99531.38;;;17.62;38.42
8318;BME280;4196;48.926;8.964;2023-05-18T12:46:54;99538.94;;;17.37;39.25
8318;BME280;4196;48.926;8.964;2023-05-18T12:49:47;99501.28;;;17.04;39.78
8318;BME280;4196;48.926;8.964;2023-05-18T12:52:34;99556.13;;;17.49;40.21
8318;BME280;4196;48.926;8.964;2023-05-18T12:55:21;99540.44;;;17.49;40.13
8318;BME280;4196;48.926;8.964;2023-05-18T12:58:12;99543.97;;;17.45;39.79
8318;BME280;4196;48.926;8.964;2023-05-18T13:01:09;99558.34;;;18.03;39.32
8318;BME280;4196;48.926;8.964;2023-05-18T13:03:59;99549.44;;;18.10;37.84
8318;BME280;4196;48.926;8.964;2023-05-18T13:06:45;99555.50;;;18.13;38.61
8318;BME280;4196;48.926;8.964;2023-05-18T13:09:33;99522.38;;;17.76;39.31
8318;BME280;4196;48.926;8.964;2023-05-18T13:15:36;99559.63;;;17.87;39.12
8318;BME280;4196;48.926;8.964;2023-05-18T13:18:22;99560.09;;;18.04;38.64
8318;BME280;4196;48.926;8.964;2023-05-18T13:21:10;99533.47;;;17.85;39.51
8318;BME280;4196;48.926;8.964;2023-05-18T13:23:56;99547.09;;;17.62;39.15
8318;BME280;4196;48.926;8.964;2023-05-18T13:26:43;99528.44;;;17.39;39.82
8318;BME280;4196;48.926;8.964;2023-05-18T13:29:29;99554.31;;;17.90;39.61
8318;BME280;4196;48.926;8.964;2023-05-18T13:32:15;99552.44;;;17.95;39.28
8318;BME280;4196;48.926;8.964;2023-05-18T13:35:04;99550.31;;;17.75;39.05
8318;BME280;4196;48.926;8.964;2023-05-18T13:37:50;99548.22;;;17.51;39.22
8318;BME280;4196;48.926;8.964;2023-05-18T13:40:37;99548.00;;;17.61;39.38
8318;BME280;4196;48.926;8.964;2023-05-18T13:43:24;99548.44;;;18.15;38.98
8318;BME280;4196;48.926;8.964;2023-05-18T13:46:11;99525.78;;;18.46;37.90
8318;BME280;4196;48.926;8.964;2023-05-18T13:48:58;99522.56;;;18.68;37.53
8318;BME280;4196;48.926;8.964;2023-05-18T13:51:44;99531.19;;;18.40;38.29
8318;BME280;4196;48.926;8.964;2023-05-18T13:54:31;99537.56;;;17.97;38.86
8318;BME280;4196;48.926;8.964;2023-05-18T13:57:17;99526.63;;;17.41;39.16
8318;BME280;4196;48.926;8.964;2023-05-18T14:00:04;99528.44;;;17.39;39.69
8318;BME280;4196;48.926;8.964;2023-05-18T14:02:58;99510.72;;;17.50;40.11
8318;BME280;4196;48.926;8.964;2023-05-18T14:05:45;99516.16;;;17.80;39.61
8318;BME280;4196;48.926;8.964;2023-05-18T14:08:31;99518.84;;;18.11;39.83
8318;BME280;4196;48.926;8.964;2023-05-18T14:11:18;99475.59;;;17.95;40.38
8318;BME280;4196;48.926;8.964;2023-05-18T14:14:04;99518.88;;;18.09;39.10
8318;BME280;4196;48.926;8.964;2023-05-18T14:16:51;99513.63;;;17.74;39.31
8318;BME280;4196;48.926;8.964;2023-05-18T14:19:38;99513.13;;;17.95;38.99
8318;BME280;4196;48.926;8.964;2023-05-18T14:22:24;99456.41;;;17.94;39.16
8318;BME280;4196;48.926;8.964;2023-05-18T14:25:15;99503.94;;;18.46;39.03
8318;BME280;4196;48.926;8.964;2023-05-18T14:28:02;99480.59;;;18.68;38.54
8318;BME280;4196;48.926;8.964;2023-05-18T14:30:49;99492.47;;;18.81;39.41
8318;BME280;4196;48.926;8.964;2023-05-18T14:33:35;99489.56;;;18.28;39.03
8318;BME280;4196;48.926;8.964;2023-05-18T14:36:22;99471.69;;;17.77;39.31
8318;BME280;4196;48.926;8.964;2023-05-18T14:39:08;99466.75;;;17.65;40.30
8318;BME280;4196;48.926;8.964;2023-05-18T14:41:55;99486.66;;;18.06;38.63
8318;BME280;4196;48.926;8.964;2023-05-18T14:44:41;99481.91;;;18.51;38.36
8318;BME280;4196;48.926;8.964;2023-05-18T14:47:28;99482.38;;;18.66;37.36
8318;BME280;4196;48.926;8.964;2023-05-18T14:50:14;99481.28;;;18.43;37.36
8318;BME280;4196;48.926;8.964;2023-05-18T14:53:01;99452.94;;;18.25;38.16
8318;BME280;4196;48.926;8.964;2023-05-18T14:55:48;99460.81;;;17.92;38.04
8318;BME280;4196;48.926;8.964;2023-05-18T14:58:34;99459.69;;;17.67;39.10
8318;BME280;4196;48.926;8.964;2023-05-18T15:01:21;99483.94;;;17.75;40.09
8318;BME280;4196;48.926;8.964;2023-05-18T15:04:07;99478.97;;;17.64;38.98
8318;BME280;4196;48.926;8.964;2023-05-18T15:06:54;99461.63;;;17.60;38.85
8318;BME280;4196;48.926;8.964;2023-05-18T15:09:41;99459.16;;;17.88;38.49
8318;BME280;4196;48.926;8.964;2023-05-18T15:12:27;99445.00;;;17.95;37.86
8318;BME280;4196;48.926;8.964;2023-05-18T15:15:14;99462.31;;;18.33;37.98
8318;BME280;4196;48.926;8.964;2023-05-18T15:18:00;99474.84;;;18.24;37.87
8318;BME280;4196;48.926;8.964;2023-05-18T15:20:47;99480.06;;;18.24;37.84
8318;BME280;4196;48.926;8.964;2023-05-18T15:23:33;99493.53;;;18.12;38.88
8318;BME280;4196;48.926;8.964;2023-05-18T15:26:20;99467.41;;;17.73;38.11
8318;BME280;4196;48.926;8.964;2023-05-18T15:29:07;99473.97;;;17.91;38.98
8318;BME280;4196;48.926;8.964;2023-05-18T15:31:54;99471.53;;;17.83;38.62